Covington, VA (24426)

8:35 PM EDT on April 27, 2017 (GMT -0400)
Dressler Estates | | Change Station

Elev 1270 ft 37.83 °N, 80.00 °W | Updated 5 minutes ago

Overcast
Overcast
63.7 °F
Feels Like 63.7 °F
N
0.0
Wind Variable Wind from SW
Gusts 9.0 mph

Today
High -- | Low -- °F
--% Chance of Precip.
Yesterday
High -- | Low -- °F
Precip. -- in
Pressure 29.89 in
Visibility 7.0 miles
Clouds Scattered Clouds 3000 ft
Mostly Cloudy 6500 ft
Overcast 10000 ft
Dew Point 62 °F
Humidity 95%
Rainfall 0.14 in
Snow Depth Not available.
6:28 AM 8:07 PM
Waxing Crescent, 3% visible
METAR KLWB 280015Z AUTO 18005KT 7SM SCT030 BKN065 OVC100 16/15 A2989 RMK AO2 T01580146
Pressure 29.89 in
Visibility 7.0 miles
Clouds Scattered Clouds 3000 ft
Mostly Cloudy 6500 ft
Overcast 10000 ft
Dew Point 62 °F
Humidity 95%
Rainfall 0.14 in
Snow Depth Not available.
6:28 AM 8:07 PM
Waxing Crescent, 3% visible
METAR KLWB 280015Z AUTO 18005KT 7SM SCT030 BKN065 OVC100 16/15 A2989 RMK AO2 T01580146

Get Severe Weather Alerts

Thanks for signing up!

Be on the lookout for a verification email in your inbox.

You'll start receiving the daily forecast at 8 AM.

×

10-Day Weather Forecast

Almanac

Astronomy

Apr. 27, 2017 Rise Set
Actual Time
Civil Twilight
Nautical Twilight
Astronomical Twilight
Moon
Length of Visible Light
Length of Day
Tomorrow will be .
, % of the Moon is Illuminated

Today's Extremes

State Highs State Lows

Community

WunderPhotos

WunderBlog® & News

Nearby

Air Quality

  Air Quality AQ Index Pollutant
Not available.

Snow Depth

Station Depth Elevation

Earthquake Activity

City Distance Mag. Time & Date
Minimum magnitude displayed is 2.5.

Coastal Water Temperatures

Place Temperature

Stations

Nearby Weather Stations

Station Location Temp. Windchill Dew Point Humidity Wind Precip. Elev Updated Type
                   

Watches & Warnings

There are currently no watches in effect.